sensor_id;sensor_type;location;lat;lon;timestamp;temperature;humidity
26575;DHT22;67165;50.256;10.978;2023-08-06T00:00:23;14.90;98.00
26575;DHT22;67165;50.256;10.978;2023-08-06T00:02:49;14.80;98.00
26575;DHT22;67165;50.256;10.978;2023-08-06T00:05:15;14.80;98.00
26575;DHT22;67165;50.256;10.978;2023-08-06T00:07:49;14.70;98.00
26575;DHT22;67165;50.256;10.978;2023-08-06T00:10:16;14.70;98.00
26575;DHT22;67165;50.256;10.978;2023-08-06T00:12:43;14.70;98.00
26575;DHT22;67165;50.256;10.978;2023-08-06T00:15:09;14.70;98.00
26575;DHT22;67165;50.256;10.978;2023-08-06T00:17:35;14.70;98.00
26575;DHT22;67165;50.256;10.978;2023-08-06T00:20:01;14.70;98.00
26575;DHT22;67165;50.256;10.978;2023-08-06T00:22:38;14.70;98.00
26575;DHT22;67165;50.256;10.978;2023-08-06T00:25:04;14.70;98.00
26575;DHT22;67165;50.256;10.978;2023-08-06T00:27:30;14.70;98.00
26575;DHT22;67165;50.256;10.978;2023-08-06T00:29:57;14.60;98.00
26575;DHT22;67165;50.256;10.978;2023-08-06T00:32:23;14.60;98.00
26575;DHT22;67165;50.256;10.978;2023-08-06T00:34:49;14.60;98.00
26575;DHT22;67165;50.256;10.978;2023-08-06T00:37:17;14.60;98.00
26575;DHT22;67165;50.256;10.978;2023-08-06T00:39:44;14.60;98.00
26575;DHT22;67165;50.256;10.978;2023-08-06T00:42:11;14.60;98.00
26575;DHT22;67165;50.256;10.978;2023-08-06T00:44:37;14.60;98.00
26575;DHT22;67165;50.256;10.978;2023-08-06T00:47:03;14.60;98.00
26575;DHT22;67165;50.256;10.978;2023-08-06T00:49:29;14.50;98.00
26575;DHT22;67165;50.256;10.978;2023-08-06T00:51:56;14.50;98.00
26575;DHT22;67165;50.256;10.978;2023-08-06T00:54:22;14.50;98.00
26575;DHT22;67165;50.256;10.978;2023-08-06T00:56:48;14.50;98.00
26575;DHT22;67165;50.256;10.978;2023-08-06T00:59:14;14.50;98.00
26575;DHT22;67165;50.256;10.978;2023-08-06T01:01:40;14.50;98.00
26575;DHT22;67165;50.256;10.978;2023-08-06T01:04:06;14.50;98.00
26575;DHT22;67165;50.256;10.978;2023-08-06T01:06:49;14.50;98.00
26575;DHT22;67165;50.256;10.978;2023-08-06T01:15:10;14.50;98.00
26575;DHT22;67165;50.256;10.978;2023-08-06T01:17:37;14.50;98.00
26575;DHT22;67165;50.256;10.978;2023-08-06T01:20:03;14.50;98.00
26575;DHT22;67165;50.256;10.978;2023-08-06T01:22:29;14.50;98.00
26575;DHT22;67165;50.256;10.978;2023-08-06T01:24:55;14.60;98.00
26575;DHT22;67165;50.256;10.978;2023-08-06T01:27:50;14.60;98.00
26575;DHT22;67165;50.256;10.978;2023-08-06T01:30:25;14.60;98.00
26575;DHT22;67165;50.256;10.978;2023-08-06T01:33:00;14.60;98.00
26575;DHT22;67165;50.256;10.978;2023-08-06T01:35:30;14.50;98.00
26575;DHT22;67165;50.256;10.978;2023-08-06T01:37:56;14.50;98.00
26575;DHT22;67165;50.256;10.978;2023-08-06T01:40:21;14.50;98.00
26575;DHT22;67165;50.256;10.978;2023-08-06T01:42:47;14.50;98.00
26575;DHT22;67165;50.256;10.978;2023-08-06T01:45:13;14.50;98.00
26575;DHT22;67165;50.256;10.978;2023-08-06T01:47:39;14.50;98.00
26575;DHT22;67165;50.256;10.978;2023-08-06T01:50:05;14.50;98.00
26575;DHT22;67165;50.256;10.978;2023-08-06T01:52:31;14.40;98.00
26575;DHT22;67165;50.256;10.978;2023-08-06T01:54:56;14.40;98.00
26575;DHT22;67165;50.256;10.978;2023-08-06T01:57:22;14.40;98.00
26575;DHT22;67165;50.256;10.978;2023-08-06T01:59:48;14.40;98.00
26575;DHT22;67165;50.256;10.978;2023-08-06T02:02:13;14.50;98.00
26575;DHT22;67165;50.256;10.978;2023-08-06T02:04:39;14.50;98.00
26575;DHT22;67165;50.256;10.978;2023-08-06T02:07:04;14.50;98.00
26575;DHT22;67165;50.256;10.978;2023-08-06T02:09:30;14.50;98.00
26575;DHT22;67165;50.256;10.978;2023-08-06T02:11:56;14.50;98.00
26575;DHT22;67165;50.256;10.978;2023-08-06T02:14:21;14.50;98.00
26575;DHT22;67165;50.256;10.978;2023-08-06T02:16:47;14.60;98.00
26575;DHT22;67165;50.256;10.978;2023-08-06T02:19:13;14.60;98.00
26575;DHT22;67165;50.256;10.978;2023-08-06T02:21:38;14.50;98.00
26575;DHT22;67165;50.256;10.978;2023-08-06T02:24:04;14.50;98.00
26575;DHT22;67165;50.256;10.978;2023-08-06T02:26:30;14.50;98.00
26575;DHT22;67165;50.256;10.978;2023-08-06T02:28:55;14.50;98.00
26575;DHT22;67165;50.256;10.978;2023-08-06T02:31:21;14.50;98.00
26575;DHT22;67165;50.256;10.978;2023-08-06T02:33:47;14.60;98.00
26575;DHT22;67165;50.256;10.978;2023-08-06T02:36:12;14.60;98.00
26575;DHT22;67165;50.256;10.978;2023-08-06T02:38:38;14.50;98.00
26575;DHT22;67165;50.256;10.978;2023-08-06T02:41:04;14.50;98.00
26575;DHT22;67165;50.256;10.978;2023-08-06T02:43:30;14.50;98.00
26575;DHT22;67165;50.256;10.978;2023-08-06T02:45:59;14.60;98.00
26575;DHT22;67165;50.256;10.978;2023-08-06T02:48:25;14.60;98.00
26575;DHT22;67165;50.256;10.978;2023-08-06T02:50:51;14.60;98.00
26575;DHT22;67165;50.256;10.978;2023-08-06T02:53:16;14.60;98.00
26575;DHT22;67165;50.256;10.978;2023-08-06T02:55:46;14.60;98.00
26575;DHT22;67165;50.256;10.978;2023-08-06T02:58:16;14.60;98.00
26575;DHT22;67165;50.256;10.978;2023-08-06T03:00:42;14.50;98.00
26575;DHT22;67165;50.256;10.978;2023-08-06T03:03:08;14.50;98.00
26575;DHT22;67165;50.256;10.978;2023-08-06T03:05:34;14.50;98.00
26575;DHT22;67165;50.256;10.978;2023-08-06T03:08:00;14.60;98.00
26575;DHT22;67165;50.256;10.978;2023-08-06T03:10:26;14.60;98.00
26575;DHT22;67165;50.256;10.978;2023-08-06T03:12:51;14.50;98.00
26575;DHT22;67165;50.256;10.978;2023-08-06T03:15:17;14.60;98.00
26575;DHT22;67165;50.256;10.978;2023-08-06T03:17:42;14.50;98.00
26575;DHT22;67165;50.256;10.978;2023-08-06T03:20:10;14.60;98.00
26575;DHT22;67165;50.256;10.978;2023-08-06T03:22:36;14.60;98.00
26575;DHT22;67165;50.256;10.978;2023-08-06T03:25:01;14.50;98.00
26575;DHT22;67165;50.256;10.978;2023-08-06T03:27:27;14.50;98.00
26575;DHT22;67165;50.256;10.978;2023-08-06T03:29:53;14.60;98.00
26575;DHT22;67165;50.256;10.978;2023-08-06T03:32:18;14.60;98.00
26575;DHT22;67165;50.256;10.978;2023-08-06T03:34:44;14.60;98.00
26575;DHT22;67165;50.256;10.978;2023-08-06T03:37:10;14.60;98.00
26575;DHT22;67165;50.256;10.978;2023-08-06T03:39:35;14.60;98.00
26575;DHT22;67165;50.256;10.978;2023-08-06T03:42:01;14.50;98.00
26575;DHT22;67165;50.256;10.978;2023-08-06T03:44:27;14.50;98.00
26575;DHT22;67165;50.256;10.978;2023-08-06T03:46:53;14.50;98.00
26575;DHT22;67165;50.256;10.978;2023-08-06T03:49:19;14.50;98.00
26575;DHT22;67165;50.256;10.978;2023-08-06T03:51:44;14.50;98.00
26575;DHT22;67165;50.256;10.978;2023-08-06T03:54:10;14.40;98.00
26575;DHT22;67165;50.256;10.978;2023-08-06T03:56:36;14.40;98.00
26575;DHT22;67165;50.256;10.978;2023-08-06T03:59:01;14.40;98.00
26575;DHT22;67165;50.256;10.978;2023-08-06T04:01:27;14.30;98.00
26575;DHT22;67165;50.256;10.978;2023-08-06T04:03:53;14.30;98.00
26575;DHT22;67165;50.256;10.978;2023-08-06T04:06:18;14.30;98.00
26575;DHT22;67165;50.256;10.978;2023-08-06T04:08:44;14.30;98.00
26575;DHT22;67165;50.256;10.978;2023-08-06T04:11:09;14.30;98.00
26575;DHT22;67165;50.256;10.978;2023-08-06T04:13:35;14.20;98.00
26575;DHT22;67165;50.256;10.978;2023-08-06T04:16:04;14.20;98.00
26575;DHT22;67165;50.256;10.978;2023-08-06T04:18:29;14.20;98.00
26575;DHT22;67165;50.256;10.978;2023-08-06T04:20:55;14.30;98.00
26575;DHT22;67165;50.256;10.978;2023-08-06T04:23:23;14.30;98.00
26575;DHT22;67165;50.256;10.978;2023-08-06T04:25:49;14.30;98.00
26575;DHT22;67165;50.256;10.978;2023-08-06T04:28:14;14.20;98.00
26575;DHT22;67165;50.256;10.978;2023-08-06T04:30:40;14.30;98.00
26575;DHT22;67165;50.256;10.978;2023-08-06T04:33:05;14.30;98.00
26575;DHT22;67165;50.256;10.978;2023-08-06T04:35:31;14.30;98.00
26575;DHT22;67165;50.256;10.978;2023-08-06T04:37:57;14.30;98.00
26575;DHT22;67165;50.256;10.978;2023-08-06T04:40:22;14.30;98.00
26575;DHT22;67165;50.256;10.978;2023-08-06T04:42:48;14.30;98.00
26575;DHT22;67165;50.256;10.978;2023-08-06T04:45:14;14.40;98.00
26575;DHT22;67165;50.256;10.978;2023-08-06T04:47:39;14.40;98.00
26575;DHT22;67165;50.256;10.978;2023-08-06T04:50:05;14.40;98.00
26575;DHT22;67165;50.256;10.978;2023-08-06T04:52:31;14.40;98.00
26575;DHT22;67165;50.256;10.978;2023-08-06T04:54:57;14.40;98.00
26575;DHT22;67165;50.256;10.978;2023-08-06T04:57:23;14.40;98.00
26575;DHT22;67165;50.256;10.978;2023-08-06T04:59:49;14.50;98.00
26575;DHT22;67165;50.256;10.978;2023-08-06T05:02:14;14.50;98.00
26575;DHT22;67165;50.256;10.978;2023-08-06T05:04:40;14.50;98.00
26575;DHT22;67165;50.256;10.978;2023-08-06T05:07:06;14.50;98.00
26575;DHT22;67165;50.256;10.978;2023-08-06T05:09:32;14.60;98.00
26575;DHT22;67165;50.256;10.978;2023-08-06T05:11:57;14.60;98.00
26575;DHT22;67165;50.256;10.978;2023-08-06T05:14:23;14.70;98.00
26575;DHT22;67165;50.256;10.978;2023-08-06T05:16:48;14.70;98.00
26575;DHT22;67165;50.256;10.978;2023-08-06T05:19:14;14.70;98.00
26575;DHT22;67165;50.256;10.978;2023-08-06T05:21:40;14.70;98.00
26575;DHT22;67165;50.256;10.978;2023-08-06T05:24:05;14.70;98.00
26575;DHT22;67165;50.256;10.978;2023-08-06T05:26:31;14.60;98.00
26575;DHT22;67165;50.256;10.978;2023-08-06T05:28:57;14.70;98.00
26575;DHT22;67165;50.256;10.978;2023-08-06T05:31:22;14.70;98.00
26575;DHT22;67165;50.256;10.978;2023-08-06T05:33:48;14.70;98.00
26575;DHT22;67165;50.256;10.978;2023-08-06T05:36:14;14.80;98.00
26575;DHT22;67165;50.256;10.978;2023-08-06T05:38:39;14.70;98.00
26575;DHT22;67165;50.256;10.978;2023-08-06T05:41:05;14.80;98.00
26575;DHT22;67165;50.256;10.978;2023-08-06T05:43:30;14.70;98.00
26575;DHT22;67165;50.256;10.978;2023-08-06T05:45:56;14.80;98.00
26575;DHT22;67165;50.256;10.978;2023-08-06T05:48:22;14.80;98.00
26575;DHT22;67165;50.256;10.978;2023-08-06T05:50:51;14.80;98.00
26575;DHT22;67165;50.256;10.978;2023-08-06T05:53:16;14.80;98.00
26575;DHT22;67165;50.256;10.978;2023-08-06T05:55:42;14.90;98.00
26575;DHT22;67165;50.256;10.978;2023-08-06T05:58:08;14.80;98.00
26575;DHT22;67165;50.256;10.978;2023-08-06T06:00:34;14.80;98.00
26575;DHT22;67165;50.256;10.978;2023-08-06T06:03:00;14.90;98.00
26575;DHT22;67165;50.256;10.978;2023-08-06T06:05:27;14.80;98.00
26575;DHT22;67165;50.256;10.978;2023-08-06T06:07:52;14.80;98.00
26575;DHT22;67165;50.256;10.978;2023-08-06T06:10:18;14.90;98.00
26575;DHT22;67165;50.256;10.978;2023-08-06T06:12:43;15.00;98.00
26575;DHT22;67165;50.256;10.978;2023-08-06T06:15:09;15.20;98.00
26575;DHT22;67165;50.256;10.978;2023-08-06T06:17:35;15.30;98.00
26575;DHT22;67165;50.256;10.978;2023-08-06T06:20:01;15.40;98.00
26575;DHT22;67165;50.256;10.978;2023-08-06T06:22:29;15.50;98.00
26575;DHT22;67165;50.256;10.978;2023-08-06T06:24:55;15.60;98.00
26575;DHT22;67165;50.256;10.978;2023-08-06T06:27:20;15.70;98.00
26575;DHT22;67165;50.256;10.978;2023-08-06T06:29:46;15.80;98.00
26575;DHT22;67165;50.256;10.978;2023-08-06T06:32:12;15.80;98.00
26575;DHT22;67165;50.256;10.978;2023-08-06T06:34:37;15.90;98.00
26575;DHT22;67165;50.256;10.978;2023-08-06T06:37:03;15.90;98.00
26575;DHT22;67165;50.256;10.978;2023-08-06T06:39:29;16.00;98.00
26575;DHT22;67165;50.256;10.978;2023-08-06T06:41:55;16.00;98.00
26575;DHT22;67165;50.256;10.978;2023-08-06T06:44:20;16.10;98.00
26575;DHT22;67165;50.256;10.978;2023-08-06T06:46:46;16.20;98.00
26575;DHT22;67165;50.256;10.978;2023-08-06T06:49:12;16.30;98.00
26575;DHT22;67165;50.256;10.978;2023-08-06T06:51:37;16.30;98.00
26575;DHT22;67165;50.256;10.978;2023-08-06T06:54:03;16.50;98.00
26575;DHT22;67165;50.256;10.978;2023-08-06T06:56:29;16.60;98.00
26575;DHT22;67165;50.256;10.978;2023-08-06T06:58:54;16.60;98.00
26575;DHT22;67165;50.256;10.978;2023-08-06T07:01:20;16.60;98.00
26575;DHT22;67165;50.256;10.978;2023-08-06T07:03:47;16.60;98.00
26575;DHT22;67165;50.256;10.978;2023-08-06T07:06:13;16.60;98.00
26575;DHT22;67165;50.256;10.978;2023-08-06T07:08:38;16.70;98.00
26575;DHT22;67165;50.256;10.978;2023-08-06T07:11:05;16.70;98.00
26575;DHT22;67165;50.256;10.978;2023-08-06T07:13:32;16.80;98.00
26575;DHT22;67165;50.256;10.978;2023-08-06T07:15:58;16.90;98.00
26575;DHT22;67165;50.256;10.978;2023-08-06T07:18:24;17.00;98.00
26575;DHT22;67165;50.256;10.978;2023-08-06T07:20:51;17.00;98.00
26575;DHT22;67165;50.256;10.978;2023-08-06T07:23:20;17.20;98.00
26575;DHT22;67165;50.256;10.978;2023-08-06T07:25:46;17.30;98.00
26575;DHT22;67165;50.256;10.978;2023-08-06T07:28:13;17.40;98.00
26575;DHT22;67165;50.256;10.978;2023-08-06T07:30:40;17.40;98.00
26575;DHT22;67165;50.256;10.978;2023-08-06T07:33:06;17.30;98.00
26575;DHT22;67165;50.256;10.978;2023-08-06T07:35:32;17.30;98.00
26575;DHT22;67165;50.256;10.978;2023-08-06T07:37:58;17.40;98.00
26575;DHT22;67165;50.256;10.978;2023-08-06T07:40:25;17.50;98.00
26575;DHT22;67165;50.256;10.978;2023-08-06T07:42:51;17.80;98.00
26575;DHT22;67165;50.256;10.978;2023-08-06T07:45:16;18.10;98.00
26575;DHT22;67165;50.256;10.978;2023-08-06T07:47:42;18.30;98.00
26575;DHT22;67165;50.256;10.978;2023-08-06T07:50:09;18.40;98.00
26575;DHT22;67165;50.256;10.978;2023-08-06T07:52:34;18.50;98.00
26575;DHT22;67165;50.256;10.978;2023-08-06T07:55:00;18.60;98.00
26575;DHT22;67165;50.256;10.978;2023-08-06T07:57:27;18.60;98.00
26575;DHT22;67165;50.256;10.978;2023-08-06T07:59:53;18.50;98.00
26575;DHT22;67165;50.256;10.978;2023-08-06T08:02:19;18.60;98.00
26575;DHT22;67165;50.256;10.978;2023-08-06T08:04:45;18.60;98.00
26575;DHT22;67165;50.256;10.978;2023-08-06T08:07:13;18.80;98.00
26575;DHT22;67165;50.256;10.978;2023-08-06T08:09:39;19.10;98.00
26575;DHT22;67165;50.256;10.978;2023-08-06T08:12:04;19.30;98.00
26575;DHT22;67165;50.256;10.978;2023-08-06T08:14:30;19.50;98.00
26575;DHT22;67165;50.256;10.978;2023-08-06T08:17:02;19.50;98.00
26575;DHT22;67165;50.256;10.978;2023-08-06T08:19:28;19.80;98.00
26575;DHT22;67165;50.256;10.978;2023-08-06T08:21:54;19.70;98.00
26575;DHT22;67165;50.256;10.978;2023-08-06T08:24:20;19.80;98.00
26575;DHT22;67165;50.256;10.978;2023-08-06T08:26:49;19.70;98.00
26575;DHT22;67165;50.256;10.978;2023-08-06T08:29:15;19.60;98.00
26575;DHT22;67165;50.256;10.978;2023-08-06T08:31:40;19.40;98.00
26575;DHT22;67165;50.256;10.978;2023-08-06T08:34:06;19.70;98.00
26575;DHT22;67165;50.256;10.978;2023-08-06T08:36:32;19.80;98.00
26575;DHT22;67165;50.256;10.978;2023-08-06T08:38:58;20.20;98.00
26575;DHT22;67165;50.256;10.978;2023-08-06T08:41:23;20.50;98.00
26575;DHT22;67165;50.256;10.978;2023-08-06T08:43:50;20.60;98.00
26575;DHT22;67165;50.256;10.978;2023-08-06T08:46:19;20.90;98.00
26575;DHT22;67165;50.256;10.978;2023-08-06T08:48:46;21.20;98.00
26575;DHT22;67165;50.256;10.978;2023-08-06T08:51:12;21.20;98.00
26575;DHT22;67165;50.256;10.978;2023-08-06T08:53:39;20.90;98.00
26575;DHT22;67165;50.256;10.978;2023-08-06T08:56:05;20.70;98.00
26575;DHT22;67165;50.256;10.978;2023-08-06T08:58:32;20.50;98.00
26575;DHT22;67165;50.256;10.978;2023-08-06T09:00:58;20.20;98.00
26575;DHT22;67165;50.256;10.978;2023-08-06T09:03:23;19.90;98.00
26575;DHT22;67165;50.256;10.978;2023-08-06T09:05:53;19.80;98.00
26575;DHT22;67165;50.256;10.978;2023-08-06T09:08:24;19.80;98.00
26575;DHT22;67165;50.256;10.978;2023-08-06T09:10:52;19.90;98.00
26575;DHT22;67165;50.256;10.978;2023-08-06T09:13:20;19.90;98.00
26575;DHT22;67165;50.256;10.978;2023-08-06T09:15:46;19.90;98.00
26575;DHT22;67165;50.256;10.978;2023-08-06T09:18:12;19.70;98.00
26575;DHT22;67165;50.256;10.978;2023-08-06T09:20:39;19.50;98.00
26575;DHT22;67165;50.256;10.978;2023-08-06T09:23:08;19.40;98.00
26575;DHT22;67165;50.256;10.978;2023-08-06T09:25:38;19.10;98.00
26575;DHT22;67165;50.256;10.978;2023-08-06T09:28:04;18.90;98.00
26575;DHT22;67165;50.256;10.978;2023-08-06T09:30:32;18.90;98.00
26575;DHT22;67165;50.256;10.978;2023-08-06T09:33:00;18.80;98.00
26575;DHT22;67165;50.256;10.978;2023-08-06T09:35:31;18.90;98.00
26575;DHT22;67165;50.256;10.978;2023-08-06T09:38:07;18.80;98.00
26575;DHT22;67165;50.256;10.978;2023-08-06T09:40:34;18.90;98.00
26575;DHT22;67165;50.256;10.978;2023-08-06T09:43:00;19.30;98.00
26575;DHT22;67165;50.256;10.978;2023-08-06T09:45:31;19.70;98.00
26575;DHT22;67165;50.256;10.978;2023-08-06T09:48:03;20.10;98.00
26575;DHT22;67165;50.256;10.978;2023-08-06T09:50:30;20.40;98.00
26575;DHT22;67165;50.256;10.978;2023-08-06T09:52:57;20.30;98.00
26575;DHT22;67165;50.256;10.978;2023-08-06T09:55:24;20.30;98.00
26575;DHT22;67165;50.256;10.978;2023-08-06T09:57:51;20.00;98.00
26575;DHT22;67165;50.256;10.978;2023-08-06T10:00:17;19.70;98.00
26575;DHT22;67165;50.256;10.978;2023-08-06T10:02:43;19.30;98.00
26575;DHT22;67165;50.256;10.978;2023-08-06T10:05:09;19.10;98.00
26575;DHT22;67165;50.256;10.978;2023-08-06T10:07:35;18.70;98.00
26575;DHT22;67165;50.256;10.978;2023-08-06T10:10:02;18.50;98.00
26575;DHT22;67165;50.256;10.978;2023-08-06T10:12:31;18.60;98.00
26575;DHT22;67165;50.256;10.978;2023-08-06T10:15:00;18.70;98.00
26575;DHT22;67165;50.256;10.978;2023-08-06T10:17:27;19.00;98.00
26575;DHT22;67165;50.256;10.978;2023-08-06T10:19:53;19.20;98.00
26575;DHT22;67165;50.256;10.978;2023-08-06T10:22:23;19.30;98.00
26575;DHT22;67165;50.256;10.978;2023-08-06T10:24:56;19.30;98.00
26575;DHT22;67165;50.256;10.978;2023-08-06T10:27:29;19.20;98.00
26575;DHT22;67165;50.256;10.978;2023-08-06T10:29:56;19.30;98.00
26575;DHT22;67165;50.256;10.978;2023-08-06T10:32:22;19.40;98.00
26575;DHT22;67165;50.256;10.978;2023-08-06T10:35:31;19.40;98.00
26575;DHT22;67165;50.256;10.978;2023-08-06T10:38:10;19.60;98.00
26575;DHT22;67165;50.256;10.978;2023-08-06T10:40:39;19.50;98.00
26575;DHT22;67165;50.256;10.978;2023-08-06T10:43:05;19.60;98.00
26575;DHT22;67165;50.256;10.978;2023-08-06T10:45:36;19.40;98.00
26575;DHT22;67165;50.256;10.978;2023-08-06T10:48:03;19.20;98.00
26575;DHT22;67165;50.256;10.978;2023-08-06T10:50:29;18.90;98.00
26575;DHT22;67165;50.256;10.978;2023-08-06T10:52:56;18.70;98.00
26575;DHT22;67165;50.256;10.978;2023-08-06T10:55:24;18.70;98.00
26575;DHT22;67165;50.256;10.978;2023-08-06T10:57:51;18.70;98.00
26575;DHT22;67165;50.256;10.978;2023-08-06T11:00:16;18.80;98.00
26575;DHT22;67165;50.256;10.978;2023-08-06T11:02:42;19.00;98.00
26575;DHT22;67165;50.256;10.978;2023-08-06T11:05:10;19.10;98.00
26575;DHT22;67165;50.256;10.978;2023-08-06T11:07:37;19.30;98.00
26575;DHT22;67165;50.256;10.978;2023-08-06T11:10:07;19.40;98.00
26575;DHT22;67165;50.256;10.978;2023-08-06T11:12:34;19.30;98.00
26575;DHT22;67165;50.256;10.978;2023-08-06T11:15:00;19.10;98.00
26575;DHT22;67165;50.256;10.978;2023-08-06T11:17:31;19.10;98.00
26575;DHT22;67165;50.256;10.978;2023-08-06T11:19:59;19.30;98.00
26575;DHT22;67165;50.256;10.978;2023-08-06T11:22:26;19.60;98.00
26575;DHT22;67165;50.256;10.978;2023-08-06T11:24:53;20.00;98.00
26575;DHT22;67165;50.256;10.978;2023-08-06T11:27:18;20.30;98.00
26575;DHT22;67165;50.256;10.978;2023-08-06T11:29:44;20.50;98.00
26575;DHT22;67165;50.256;10.978;2023-08-06T11:32:11;20.60;98.00
26575;DHT22;67165;50.256;10.978;2023-08-06T11:34:37;20.60;98.00
26575;DHT22;67165;50.256;10.978;2023-08-06T11:37:03;20.80;98.00
26575;DHT22;67165;50.256;10.978;2023-08-06T11:39:36;20.60;98.00
26575;DHT22;67165;50.256;10.978;2023-08-06T11:42:08;20.40;98.00
26575;DHT22;67165;50.256;10.978;2023-08-06T11:44:37;20.20;98.00
26575;DHT22;67165;50.256;10.978;2023-08-06T11:47:04;20.30;98.00
26575;DHT22;67165;50.256;10.978;2023-08-06T11:52:18;20.70;98.00
26575;DHT22;67165;50.256;10.978;2023-08-06T11:55:00;20.60;98.00
26575;DHT22;67165;50.256;10.978;2023-08-06T11:57:32;20.20;98.00
26575;DHT22;67165;50.256;10.978;2023-08-06T12:00:12;20.10;98.00
26575;DHT22;67165;50.256;10.978;2023-08-06T12:02:39;19.80;98.00
26575;DHT22;67165;50.256;10.978;2023-08-06T12:05:16;19.70;98.00
26575;DHT22;67165;50.256;10.978;2023-08-06T12:10:12;19.50;98.00
26575;DHT22;67165;50.256;10.978;2023-08-06T12:12:39;19.50;98.00
26575;DHT22;67165;50.256;10.978;2023-08-06T12:15:06;19.50;98.00
26575;DHT22;67165;50.256;10.978;2023-08-06T12:17:32;19.50;98.00
26575;DHT22;67165;50.256;10.978;2023-08-06T12:19:57;19.80;98.00
26575;DHT22;67165;50.256;10.978;2023-08-06T12:22:23;20.20;98.00
26575;DHT22;67165;50.256;10.978;2023-08-06T12:24:49;20.50;98.00
26575;DHT22;67165;50.256;10.978;2023-08-06T12:27:15;20.70;98.00
26575;DHT22;67165;50.256;10.978;2023-08-06T12:29:47;20.90;98.00
26575;DHT22;67165;50.256;10.978;2023-08-06T12:32:14;21.10;98.00
26575;DHT22;67165;50.256;10.978;2023-08-06T12:34:41;21.10;98.00
26575;DHT22;67165;50.256;10.978;2023-08-06T12:37:07;21.30;98.00
26575;DHT22;67165;50.256;10.978;2023-08-06T12:39:34;21.40;98.00
26575;DHT22;67165;50.256;10.978;2023-08-06T12:42:00;21.40;98.00
26575;DHT22;67165;50.256;10.978;2023-08-06T12:44:26;21.10;98.00
26575;DHT22;67165;50.256;10.978;2023-08-06T12:46:53;20.70;98.00
26575;DHT22;67165;50.256;10.978;2023-08-06T12:49:19;20.40;98.00
26575;DHT22;67165;50.256;10.978;2023-08-06T12:51:47;20.20;98.00
26575;DHT22;67165;50.256;10.978;2023-08-06T12:54:12;19.80;98.00
26575;DHT22;67165;50.256;10.978;2023-08-06T12:56:38;19.30;98.00
26575;DHT22;67165;50.256;10.978;2023-08-06T12:59:04;19.10;98.00
26575;DHT22;67165;50.256;10.978;2023-08-06T13:01:29;18.90;98.00
26575;DHT22;67165;50.256;10.978;2023-08-06T13:03:55;18.90;98.00
26575;DHT22;67165;50.256;10.978;2023-08-06T13:06:20;19.00;98.00
26575;DHT22;67165;50.256;10.978;2023-08-06T13:08:46;19.20;98.00
26575;DHT22;67165;50.256;10.978;2023-08-06T13:11:12;19.30;98.00
26575;DHT22;67165;50.256;10.978;2023-08-06T13:13:37;19.50;98.00
26575;DHT22;67165;50.256;10.978;2023-08-06T13:16:03;19.70;98.00
26575;DHT22;67165;50.256;10.978;2023-08-06T13:18:29;19.90;98.00
26575;DHT22;67165;50.256;10.978;2023-08-06T13:20:54;20.00;98.00
26575;DHT22;67165;50.256;10.978;2023-08-06T13:23:20;20.00;98.00
26575;DHT22;67165;50.256;10.978;2023-08-06T13:25:46;19.90;98.00
26575;DHT22;67165;50.256;10.978;2023-08-06T13:28:12;19.60;98.00
26575;DHT22;67165;50.256;10.978;2023-08-06T13:30:39;19.40;98.00
26575;DHT22;67165;50.256;10.978;2023-08-06T13:33:07;19.10;98.00
26575;DHT22;67165;50.256;10.978;2023-08-06T13:35:33;19.00;98.00
26575;DHT22;67165;50.256;10.978;2023-08-06T13:37:59;19.00;98.00
26575;DHT22;67165;50.256;10.978;2023-08-06T13:40:24;19.00;98.00
26575;DHT22;67165;50.256;10.978;2023-08-06T13:42:50;19.10;98.00
26575;DHT22;67165;50.256;10.978;2023-08-06T13:45:16;19.20;98.00
26575;DHT22;67165;50.256;10.978;2023-08-06T13:47:41;19.30;98.00
26575;DHT22;67165;50.256;10.978;2023-08-06T13:50:08;19.40;98.00
26575;DHT22;67165;50.256;10.978;2023-08-06T13:52:33;19.50;98.00
26575;DHT22;67165;50.256;10.978;2023-08-06T13:55:01;19.50;98.00
26575;DHT22;67165;50.256;10.978;2023-08-06T13:57:27;19.60;98.00
26575;DHT22;67165;50.256;10.978;2023-08-06T13:59:53;19.50;98.00
26575;DHT22;67165;50.256;10.978;2023-08-06T14:02:18;19.50;98.00
26575;DHT22;67165;50.256;10.978;2023-08-06T14:04:44;19.30;98.00
26575;DHT22;67165;50.256;10.978;2023-08-06T14:07:09;19.20;98.00
26575;DHT22;67165;50.256;10.978;2023-08-06T14:09:35;18.90;98.00
26575;DHT22;67165;50.256;10.978;2023-08-06T14:12:01;18.50;98.00
26575;DHT22;67165;50.256;10.978;2023-08-06T14:14:26;18.20;98.00
26575;DHT22;67165;50.256;10.978;2023-08-06T14:16:55;17.90;98.00
26575;DHT22;67165;50.256;10.978;2023-08-06T14:19:21;18.00;98.00
26575;DHT22;67165;50.256;10.978;2023-08-06T14:21:47;18.00;98.00
26575;DHT22;67165;50.256;10.978;2023-08-06T14:24:12;18.00;98.00
26575;DHT22;67165;50.256;10.978;2023-08-06T14:26:38;18.00;98.00
26575;DHT22;67165;50.256;10.978;2023-08-06T14:29:04;17.90;98.00
26575;DHT22;67165;50.256;10.978;2023-08-06T14:31:30;17.70;98.00
26575;DHT22;67165;50.256;10.978;2023-08-06T14:33:55;17.40;98.00
26575;DHT22;67165;50.256;10.978;2023-08-06T14:36:21;17.20;98.00
26575;DHT22;67165;50.256;10.978;2023-08-06T14:38:47;17.00;98.00
26575;DHT22;67165;50.256;10.978;2023-08-06T14:41:13;16.80;98.00
26575;DHT22;67165;50.256;10.978;2023-08-06T14:43:38;16.70;98.00
26575;DHT22;67165;50.256;10.978;2023-08-06T14:46:04;16.50;98.00
26575;DHT22;67165;50.256;10.978;2023-08-06T14:48:30;16.50;98.00
26575;DHT22;67165;50.256;10.978;2023-08-06T14:50:56;16.40;98.00
26575;DHT22;67165;50.256;10.978;2023-08-06T14:53:22;16.40;98.00
26575;DHT22;67165;50.256;10.978;2023-08-06T14:55:47;16.40;98.00
26575;DHT22;67165;50.256;10.978;2023-08-06T14:58:13;16.40;98.00
26575;DHT22;67165;50.256;10.978;2023-08-06T15:00:39;16.50;98.00
26575;DHT22;67165;50.256;10.978;2023-08-06T15:03:04;16.60;98.00
26575;DHT22;67165;50.256;10.978;2023-08-06T15:05:30;16.70;98.00
26575;DHT22;67165;50.256;10.978;2023-08-06T15:07:56;16.80;98.00
26575;DHT22;67165;50.256;10.978;2023-08-06T15:10:21;17.00;98.00
26575;DHT22;67165;50.256;10.978;2023-08-06T15:12:48;17.20;98.00
26575;DHT22;67165;50.256;10.978;2023-08-06T15:15:14;17.40;98.00
26575;DHT22;67165;50.256;10.978;2023-08-06T15:17:40;17.50;98.00
26575;DHT22;67165;50.256;10.978;2023-08-06T15:20:06;17.60;98.00
26575;DHT22;67165;50.256;10.978;2023-08-06T15:22:32;17.70;98.00